sensor_id;sensor_type;location;lat;lon;timestamp;P1;durP1;ratioP1;P2;durP2;ratioP2
76136;SDS011;68622;53.128;17.966;2024-01-16T00:01:15;7.50;;;1.00;;
76136;SDS011;68622;53.128;17.966;2024-01-16T00:03:45;4.20;;;0.70;;
76136;SDS011;68622;53.128;17.966;2024-01-16T00:06:11;5.60;;;0.70;;
76136;SDS011;68622;53.128;17.966;2024-01-16T00:08:38;5.10;;;0.60;;
76136;SDS011;68622;53.128;17.966;2024-01-16T00:11:03;5.70;;;0.90;;
76136;SDS011;68622;53.128;17.966;2024-01-16T00:13:29;4.30;;;0.70;;
76136;SDS011;68622;53.128;17.966;2024-01-16T00:15:55;7.00;;;0.90;;
76136;SDS011;68622;53.128;17.966;2024-01-16T00:18:24;4.70;;;0.90;;
76136;SDS011;68622;53.128;17.966;2024-01-16T00:20:50;4.30;;;0.70;;
76136;SDS011;68622;53.128;17.966;2024-01-16T00:23:16;5.70;;;1.40;;
76136;SDS011;68622;53.128;17.966;2024-01-16T00:25:42;3.50;;;0.50;;
76136;SDS011;68622;53.128;17.966;2024-01-16T00:28:08;3.50;;;0.60;;
76136;SDS011;68622;53.128;17.966;2024-01-16T00:30:34;3.50;;;0.40;;
76136;SDS011;68622;53.128;17.966;2024-01-16T00:33:00;5.30;;;0.60;;
76136;SDS011;68622;53.128;17.966;2024-01-16T00:35:25;3.40;;;0.50;;
76136;SDS011;68622;53.128;17.966;2024-01-16T00:37:51;1.90;;;0.20;;
76136;SDS011;68622;53.128;17.966;2024-01-16T00:40:18;3.20;;;0.40;;
76136;SDS011;68622;53.128;17.966;2024-01-16T00:42:43;4.80;;;0.50;;
76136;SDS011;68622;53.128;17.966;2024-01-16T00:45:09;4.90;;;0.60;;
76136;SDS011;68622;53.128;17.966;2024-01-16T00:47:35;3.90;;;0.60;;
76136;SDS011;68622;53.128;17.966;2024-01-16T00:50:01;4.90;;;0.60;;
76136;SDS011;68622;53.128;17.966;2024-01-16T00:52:27;4.10;;;0.50;;
76136;SDS011;68622;53.128;17.966;2024-01-16T00:54:54;3.90;;;0.40;;
76136;SDS011;68622;53.128;17.966;2024-01-16T00:57:19;5.60;;;0.70;;
76136;SDS011;68622;53.128;17.966;2024-01-16T00:59:46;3.40;;;0.50;;
76136;SDS011;68622;53.128;17.966;2024-01-16T01:02:12;1.30;;;0.30;;
76136;SDS011;68622;53.128;17.966;2024-01-16T01:04:38;5.20;;;0.70;;
76136;SDS011;68622;53.128;17.966;2024-01-16T01:07:04;2.20;;;0.50;;
76136;SDS011;68622;53.128;17.966;2024-01-16T01:09:32;2.50;;;0.30;;
76136;SDS011;68622;53.128;17.966;2024-01-16T01:11:58;5.20;;;0.40;;
76136;SDS011;68622;53.128;17.966;2024-01-16T01:14:24;4.00;;;0.40;;
76136;SDS011;68622;53.128;17.966;2024-01-16T01:16:51;2.90;;;0.40;;
76136;SDS011;68622;53.128;17.966;2024-01-16T01:19:17;2.30;;;0.20;;
76136;SDS011;68622;53.128;17.966;2024-01-16T01:21:43;2.70;;;0.40;;
76136;SDS011;68622;53.128;17.966;2024-01-16T01:24:09;2.90;;;0.40;;
76136;SDS011;68622;53.128;17.966;2024-01-16T01:26:35;3.60;;;0.50;;
76136;SDS011;68622;53.128;17.966;2024-01-16T01:29:01;2.40;;;0.30;;
76136;SDS011;68622;53.128;17.966;2024-01-16T01:31:27;3.30;;;0.40;;
76136;SDS011;68622;53.128;17.966;2024-01-16T01:33:53;4.00;;;0.70;;
76136;SDS011;68622;53.128;17.966;2024-01-16T01:36:19;2.60;;;0.40;;
76136;SDS011;68622;53.128;17.966;2024-01-16T01:38:45;2.70;;;0.40;;
76136;SDS011;68622;53.128;17.966;2024-01-16T01:41:11;3.20;;;0.50;;
76136;SDS011;68622;53.128;17.966;2024-01-16T01:43:37;4.90;;;0.70;;
76136;SDS011;68622;53.128;17.966;2024-01-16T01:46:12;3.50;;;0.50;;
76136;SDS011;68622;53.128;17.966;2024-01-16T01:48:40;4.60;;;0.50;;
76136;SDS011;68622;53.128;17.966;2024-01-16T01:51:12;2.90;;;0.50;;
76136;SDS011;68622;53.128;17.966;2024-01-16T01:53:39;1.50;;;0.30;;
76136;SDS011;68622;53.128;17.966;2024-01-16T01:56:08;7.50;;;1.00;;
76136;SDS011;68622;53.128;17.966;2024-01-16T01:58:36;5.20;;;0.60;;
76136;SDS011;68622;53.128;17.966;2024-01-16T02:01:05;3.40;;;0.70;;
76136;SDS011;68622;53.128;17.966;2024-01-16T02:03:35;5.10;;;0.40;;
76136;SDS011;68622;53.128;17.966;2024-01-16T02:06:06;3.60;;;0.40;;
76136;SDS011;68622;53.128;17.966;2024-01-16T02:08:32;3.30;;;0.40;;
76136;SDS011;68622;53.128;17.966;2024-01-16T02:10:59;4.30;;;0.60;;
76136;SDS011;68622;53.128;17.966;2024-01-16T02:13:24;7.10;;;0.70;;
76136;SDS011;68622;53.128;17.966;2024-01-16T02:15:50;4.40;;;0.80;;
76136;SDS011;68622;53.128;17.966;2024-01-16T02:18:16;4.00;;;0.60;;
76136;SDS011;68622;53.128;17.966;2024-01-16T02:20:43;5.90;;;0.80;;
76136;SDS011;68622;53.128;17.966;2024-01-16T02:23:12;4.00;;;0.70;;
76136;SDS011;68622;53.128;17.966;2024-01-16T02:25:40;6.50;;;0.90;;
76136;SDS011;68622;53.128;17.966;2024-01-16T02:28:07;5.40;;;0.70;;
76136;SDS011;68622;53.128;17.966;2024-01-16T02:30:33;14.30;;;5.80;;
76136;SDS011;68622;53.128;17.966;2024-01-16T02:32:59;7.40;;;0.90;;
76136;SDS011;68622;53.128;17.966;2024-01-16T02:35:25;3.40;;;0.50;;
76136;SDS011;68622;53.128;17.966;2024-01-16T02:37:51;3.90;;;0.60;;
76136;SDS011;68622;53.128;17.966;2024-01-16T02:40:17;2.90;;;0.40;;
76136;SDS011;68622;53.128;17.966;2024-01-16T02:42:43;5.10;;;0.70;;
76136;SDS011;68622;53.128;17.966;2024-01-16T02:45:09;3.50;;;0.50;;
76136;SDS011;68622;53.128;17.966;2024-01-16T02:47:35;4.40;;;0.60;;
76136;SDS011;68622;53.128;17.966;2024-01-16T02:50:01;7.60;;;0.60;;
76136;SDS011;68622;53.128;17.966;2024-01-16T02:52:27;5.70;;;0.70;;
76136;SDS011;68622;53.128;17.966;2024-01-16T02:54:53;2.40;;;0.30;;
76136;SDS011;68622;53.128;17.966;2024-01-16T02:57:20;4.90;;;0.60;;
76136;SDS011;68622;53.128;17.966;2024-01-16T02:59:45;5.00;;;0.90;;
76136;SDS011;68622;53.128;17.966;2024-01-16T03:02:12;5.80;;;0.80;;
76136;SDS011;68622;53.128;17.966;2024-01-16T03:04:39;4.10;;;0.60;;
76136;SDS011;68622;53.128;17.966;2024-01-16T03:07:05;4.00;;;0.40;;
76136;SDS011;68622;53.128;17.966;2024-01-16T03:09:31;4.10;;;0.40;;
76136;SDS011;68622;53.128;17.966;2024-01-16T03:11:57;3.60;;;0.60;;
76136;SDS011;68622;53.128;17.966;2024-01-16T03:14:26;6.90;;;0.40;;
76136;SDS011;68622;53.128;17.966;2024-01-16T03:16:52;5.20;;;0.50;;
76136;SDS011;68622;53.128;17.966;2024-01-16T03:19:17;3.30;;;0.40;;
76136;SDS011;68622;53.128;17.966;2024-01-16T03:21:43;2.40;;;0.30;;
76136;SDS011;68622;53.128;17.966;2024-01-16T03:24:10;12.70;;;0.70;;
76136;SDS011;68622;53.128;17.966;2024-01-16T03:26:36;2.30;;;0.50;;
76136;SDS011;68622;53.128;17.966;2024-01-16T03:29:03;24.70;;;9.00;;
76136;SDS011;68622;53.128;17.966;2024-01-16T03:31:30;8.80;;;1.70;;
76136;SDS011;68622;53.128;17.966;2024-01-16T03:33:56;9.20;;;0.60;;
76136;SDS011;68622;53.128;17.966;2024-01-16T03:36:22;1.00;;;0.20;;
76136;SDS011;68622;53.128;17.966;2024-01-16T03:38:48;3.10;;;0.30;;
76136;SDS011;68622;53.128;17.966;2024-01-16T03:41:14;2.60;;;0.20;;
76136;SDS011;68622;53.128;17.966;2024-01-16T03:43:40;3.80;;;0.20;;
76136;SDS011;68622;53.128;17.966;2024-01-16T03:46:06;4.30;;;0.30;;
76136;SDS011;68622;53.128;17.966;2024-01-16T03:48:33;4.10;;;0.50;;
76136;SDS011;68622;53.128;17.966;2024-01-16T03:50:59;13.70;;;1.40;;
76136;SDS011;68622;53.128;17.966;2024-01-16T03:53:25;5.30;;;0.70;;
76136;SDS011;68622;53.128;17.966;2024-01-16T03:55:50;3.40;;;0.40;;
76136;SDS011;68622;53.128;17.966;2024-01-16T03:58:16;3.80;;;0.50;;
76136;SDS011;68622;53.128;17.966;2024-01-16T04:00:42;4.40;;;0.60;;
76136;SDS011;68622;53.128;17.966;2024-01-16T04:03:09;1.70;;;0.20;;
76136;SDS011;68622;53.128;17.966;2024-01-16T04:05:35;6.40;;;0.50;;
76136;SDS011;68622;53.128;17.966;2024-01-16T04:08:01;3.20;;;0.30;;
76136;SDS011;68622;53.128;17.966;2024-01-16T04:10:27;3.40;;;0.60;;
76136;SDS011;68622;53.128;17.966;2024-01-16T04:12:53;3.70;;;0.50;;
76136;SDS011;68622;53.128;17.966;2024-01-16T04:15:18;3.90;;;0.70;;
76136;SDS011;68622;53.128;17.966;2024-01-16T04:17:44;8.10;;;1.00;;
76136;SDS011;68622;53.128;17.966;2024-01-16T04:20:11;8.40;;;1.00;;
76136;SDS011;68622;53.128;17.966;2024-01-16T04:22:37;7.30;;;0.90;;
76136;SDS011;68622;53.128;17.966;2024-01-16T04:25:03;11.10;;;1.50;;
76136;SDS011;68622;53.128;17.966;2024-01-16T04:27:31;10.20;;;1.60;;
76136;SDS011;68622;53.128;17.966;2024-01-16T04:29:57;21.30;;;3.00;;
76136;SDS011;68622;53.128;17.966;2024-01-16T04:32:24;12.20;;;2.80;;
76136;SDS011;68622;53.128;17.966;2024-01-16T04:34:49;11.20;;;2.00;;
76136;SDS011;68622;53.128;17.966;2024-01-16T04:37:15;11.20;;;2.40;;
76136;SDS011;68622;53.128;17.966;2024-01-16T04:39:41;10.90;;;2.50;;
76136;SDS011;68622;53.128;17.966;2024-01-16T04:42:07;9.50;;;2.40;;
76136;SDS011;68622;53.128;17.966;2024-01-16T04:44:33;10.10;;;2.50;;
76136;SDS011;68622;53.128;17.966;2024-01-16T04:46:59;12.00;;;3.50;;
76136;SDS011;68622;53.128;17.966;2024-01-16T04:49:25;13.50;;;3.30;;
76136;SDS011;68622;53.128;17.966;2024-01-16T04:51:51;13.90;;;3.40;;
76136;SDS011;68622;53.128;17.966;2024-01-16T04:54:17;16.40;;;3.60;;
76136;SDS011;68622;53.128;17.966;2024-01-16T04:56:45;14.60;;;4.40;;
76136;SDS011;68622;53.128;17.966;2024-01-16T04:59:11;13.40;;;3.60;;
76136;SDS011;68622;53.128;17.966;2024-01-16T05:01:37;26.20;;;7.10;;
76136;SDS011;68622;53.128;17.966;2024-01-16T05:04:03;41.00;;;10.40;;
76136;SDS011;68622;53.128;17.966;2024-01-16T05:06:29;44.50;;;9.70;;
76136;SDS011;68622;53.128;17.966;2024-01-16T05:08:55;38.20;;;8.10;;
76136;SDS011;68622;53.128;17.966;2024-01-16T05:11:21;26.90;;;6.90;;
76136;SDS011;68622;53.128;17.966;2024-01-16T05:13:47;22.10;;;6.20;;
76136;SDS011;68622;53.128;17.966;2024-01-16T05:16:13;15.90;;;4.10;;
76136;SDS011;68622;53.128;17.966;2024-01-16T05:18:42;16.20;;;4.70;;
76136;SDS011;68622;53.128;17.966;2024-01-16T05:21:08;19.80;;;4.90;;
76136;SDS011;68622;53.128;17.966;2024-01-16T05:23:34;11.40;;;3.70;;
76136;SDS011;68622;53.128;17.966;2024-01-16T05:26:00;11.10;;;4.00;;
76136;SDS011;68622;53.128;17.966;2024-01-16T05:28:27;13.50;;;4.90;;
76136;SDS011;68622;53.128;17.966;2024-01-16T05:30:53;11.10;;;3.50;;
76136;SDS011;68622;53.128;17.966;2024-01-16T05:33:19;11.80;;;3.20;;
76136;SDS011;68622;53.128;17.966;2024-01-16T05:35:45;12.50;;;3.90;;
76136;SDS011;68622;53.128;17.966;2024-01-16T05:38:12;11.50;;;3.40;;
76136;SDS011;68622;53.128;17.966;2024-01-16T05:40:38;20.40;;;5.40;;
76136;SDS011;68622;53.128;17.966;2024-01-16T05:43:05;16.50;;;6.30;;
76136;SDS011;68622;53.128;17.966;2024-01-16T05:45:31;21.50;;;7.10;;
76136;SDS011;68622;53.128;17.966;2024-01-16T05:47:56;19.90;;;6.20;;
76136;SDS011;68622;53.128;17.966;2024-01-16T05:50:22;15.20;;;5.60;;
76136;SDS011;68622;53.128;17.966;2024-01-16T05:52:48;13.90;;;5.20;;
76136;SDS011;68622;53.128;17.966;2024-01-16T05:55:16;17.50;;;5.70;;
76136;SDS011;68622;53.128;17.966;2024-01-16T05:57:42;14.30;;;5.40;;
76136;SDS011;68622;53.128;17.966;2024-01-16T06:00:09;16.40;;;5.10;;
76136;SDS011;68622;53.128;17.966;2024-01-16T06:02:36;19.40;;;4.80;;
76136;SDS011;68622;53.128;17.966;2024-01-16T06:05:02;20.90;;;8.00;;
76136;SDS011;68622;53.128;17.966;2024-01-16T06:07:28;28.00;;;8.30;;
76136;SDS011;68622;53.128;17.966;2024-01-16T06:09:54;22.50;;;7.50;;
76136;SDS011;68622;53.128;17.966;2024-01-16T06:12:20;20.70;;;7.00;;
76136;SDS011;68622;53.128;17.966;2024-01-16T06:14:46;20.20;;;5.00;;
76136;SDS011;68622;53.128;17.966;2024-01-16T06:17:12;14.90;;;5.70;;
76136;SDS011;68622;53.128;17.966;2024-01-16T06:19:39;20.00;;;6.10;;
76136;SDS011;68622;53.128;17.966;2024-01-16T06:22:05;15.80;;;5.30;;
76136;SDS011;68622;53.128;17.966;2024-01-16T06:24:31;20.20;;;5.90;;
76136;SDS011;68622;53.128;17.966;2024-01-16T06:27:04;26.80;;;6.20;;
76136;SDS011;68622;53.128;17.966;2024-01-16T06:29:32;23.30;;;5.80;;
76136;SDS011;68622;53.128;17.966;2024-01-16T06:31:58;14.00;;;3.70;;
76136;SDS011;68622;53.128;17.966;2024-01-16T06:34:24;15.50;;;4.90;;
76136;SDS011;68622;53.128;17.966;2024-01-16T06:36:50;15.50;;;5.10;;
76136;SDS011;68622;53.128;17.966;2024-01-16T06:39:16;24.30;;;6.70;;
76136;SDS011;68622;53.128;17.966;2024-01-16T06:41:43;22.80;;;7.40;;
76136;SDS011;68622;53.128;17.966;2024-01-16T06:44:09;29.50;;;10.60;;
76136;SDS011;68622;53.128;17.966;2024-01-16T06:46:35;34.30;;;8.90;;
76136;SDS011;68622;53.128;17.966;2024-01-16T06:49:01;40.90;;;11.90;;
76136;SDS011;68622;53.128;17.966;2024-01-16T06:51:27;30.20;;;9.30;;
76136;SDS011;68622;53.128;17.966;2024-01-16T06:53:53;38.40;;;11.10;;
76136;SDS011;68622;53.128;17.966;2024-01-16T06:56:19;33.90;;;9.20;;
76136;SDS011;68622;53.128;17.966;2024-01-16T06:58:45;24.60;;;8.40;;
76136;SDS011;68622;53.128;17.966;2024-01-16T07:01:11;38.80;;;9.40;;
76136;SDS011;68622;53.128;17.966;2024-01-16T07:03:37;30.20;;;8.90;;
76136;SDS011;68622;53.128;17.966;2024-01-16T07:06:03;33.40;;;8.70;;
76136;SDS011;68622;53.128;17.966;2024-01-16T07:08:30;37.90;;;10.60;;
76136;SDS011;68622;53.128;17.966;2024-01-16T07:10:56;49.80;;;17.30;;
76136;SDS011;68622;53.128;17.966;2024-01-16T07:13:22;58.30;;;19.00;;
76136;SDS011;68622;53.128;17.966;2024-01-16T07:15:48;57.40;;;16.40;;
76136;SDS011;68622;53.128;17.966;2024-01-16T07:18:14;45.50;;;13.10;;
76136;SDS011;68622;53.128;17.966;2024-01-16T07:20:40;31.50;;;8.50;;
76136;SDS011;68622;53.128;17.966;2024-01-16T07:23:07;27.00;;;8.00;;
76136;SDS011;68622;53.128;17.966;2024-01-16T07:25:32;29.50;;;7.80;;
76136;SDS011;68622;53.128;17.966;2024-01-16T07:27:59;22.80;;;6.90;;
76136;SDS011;68622;53.128;17.966;2024-01-16T07:30:25;16.00;;;5.10;;
76136;SDS011;68622;53.128;17.966;2024-01-16T07:32:51;13.30;;;4.30;;
76136;SDS011;68622;53.128;17.966;2024-01-16T07:35:17;12.60;;;3.70;;
76136;SDS011;68622;53.128;17.966;2024-01-16T07:37:43;14.60;;;4.60;;
76136;SDS011;68622;53.128;17.966;2024-01-16T07:40:09;15.60;;;5.00;;
76136;SDS011;68622;53.128;17.966;2024-01-16T07:42:35;18.90;;;6.60;;
76136;SDS011;68622;53.128;17.966;2024-01-16T07:45:03;22.90;;;7.30;;
76136;SDS011;68622;53.128;17.966;2024-01-16T07:47:30;20.30;;;6.40;;
76136;SDS011;68622;53.128;17.966;2024-01-16T07:49:57;37.00;;;11.60;;
76136;SDS011;68622;53.128;17.966;2024-01-16T07:52:23;37.30;;;12.60;;
76136;SDS011;68622;53.128;17.966;2024-01-16T07:54:49;25.70;;;9.10;;
76136;SDS011;68622;53.128;17.966;2024-01-16T07:57:15;33.80;;;11.60;;
76136;SDS011;68622;53.128;17.966;2024-01-16T07:59:41;31.80;;;10.10;;
76136;SDS011;68622;53.128;17.966;2024-01-16T08:02:07;24.80;;;7.90;;
76136;SDS011;68622;53.128;17.966;2024-01-16T08:04:34;27.80;;;8.40;;
76136;SDS011;68622;53.128;17.966;2024-01-16T08:07:00;28.00;;;8.80;;
76136;SDS011;68622;53.128;17.966;2024-01-16T08:09:26;24.30;;;6.70;;
76136;SDS011;68622;53.128;17.966;2024-01-16T08:11:52;18.50;;;4.80;;
76136;SDS011;68622;53.128;17.966;2024-01-16T08:14:18;19.30;;;6.10;;
76136;SDS011;68622;53.128;17.966;2024-01-16T08:16:44;18.00;;;5.40;;
76136;SDS011;68622;53.128;17.966;2024-01-16T08:19:10;22.50;;;6.20;;
76136;SDS011;68622;53.128;17.966;2024-01-16T08:21:36;27.90;;;8.20;;
76136;SDS011;68622;53.128;17.966;2024-01-16T08:24:02;14.90;;;4.70;;
76136;SDS011;68622;53.128;17.966;2024-01-16T08:26:28;15.00;;;5.00;;
76136;SDS011;68622;53.128;17.966;2024-01-16T08:28:57;16.80;;;5.80;;
76136;SDS011;68622;53.128;17.966;2024-01-16T08:31:23;17.10;;;4.60;;
76136;SDS011;68622;53.128;17.966;2024-01-16T08:33:49;18.40;;;5.20;;
76136;SDS011;68622;53.128;17.966;2024-01-16T08:36:17;17.00;;;5.40;;
76136;SDS011;68622;53.128;17.966;2024-01-16T08:38:43;18.30;;;4.50;;
76136;SDS011;68622;53.128;17.966;2024-01-16T08:41:09;17.90;;;5.50;;
76136;SDS011;68622;53.128;17.966;2024-01-16T08:43:34;15.10;;;5.10;;
76136;SDS011;68622;53.128;17.966;2024-01-16T08:46:01;25.00;;;8.40;;
76136;SDS011;68622;53.128;17.966;2024-01-16T08:48:27;22.70;;;7.60;;
76136;SDS011;68622;53.128;17.966;2024-01-16T08:50:53;33.30;;;10.90;;
76136;SDS011;68622;53.128;17.966;2024-01-16T08:53:21;34.90;;;11.70;;
76136;SDS011;68622;53.128;17.966;2024-01-16T08:55:50;28.90;;;9.70;;
76136;SDS011;68622;53.128;17.966;2024-01-16T08:58:16;35.10;;;9.00;;
76136;SDS011;68622;53.128;17.966;2024-01-16T09:00:42;34.20;;;8.80;;
76136;SDS011;68622;53.128;17.966;2024-01-16T09:03:08;27.70;;;9.00;;
76136;SDS011;68622;53.128;17.966;2024-01-16T09:05:34;25.20;;;8.30;;
76136;SDS011;68622;53.128;17.966;2024-01-16T09:08:04;28.00;;;10.70;;
76136;SDS011;68622;53.128;17.966;2024-01-16T09:10:30;26.80;;;7.90;;
76136;SDS011;68622;53.128;17.966;2024-01-16T09:12:56;24.30;;;7.60;;
76136;SDS011;68622;53.128;17.966;2024-01-16T09:15:22;20.10;;;6.40;;
76136;SDS011;68622;53.128;17.966;2024-01-16T09:17:48;21.10;;;10.50;;
76136;SDS011;68622;53.128;17.966;2024-01-16T09:20:14;14.30;;;5.00;;
76136;SDS011;68622;53.128;17.966;2024-01-16T09:22:40;15.50;;;5.70;;
76136;SDS011;68622;53.128;17.966;2024-01-16T09:25:06;14.80;;;4.90;;
76136;SDS011;68622;53.128;17.966;2024-01-16T09:27:32;18.30;;;5.40;;
76136;SDS011;68622;53.128;17.966;2024-01-16T09:29:58;16.20;;;5.30;;
76136;SDS011;68622;53.128;17.966;2024-01-16T09:32:25;14.40;;;4.00;;
76136;SDS011;68622;53.128;17.966;2024-01-16T09:34:51;12.60;;;3.60;;
76136;SDS011;68622;53.128;17.966;2024-01-16T09:37:17;14.60;;;4.40;;
76136;SDS011;68622;53.128;17.966;2024-01-16T09:39:42;15.70;;;4.60;;
76136;SDS011;68622;53.128;17.966;2024-01-16T09:42:08;12.10;;;3.50;;
76136;SDS011;68622;53.128;17.966;2024-01-16T09:44:35;9.80;;;3.50;;
76136;SDS011;68622;53.128;17.966;2024-01-16T09:47:01;13.90;;;4.20;;
76136;SDS011;68622;53.128;17.966;2024-01-16T09:49:29;13.20;;;3.90;;
76136;SDS011;68622;53.128;17.966;2024-01-16T09:51:55;16.40;;;7.90;;
76136;SDS011;68622;53.128;17.966;2024-01-16T09:54:24;17.10;;;6.10;;
76136;SDS011;68622;53.128;17.966;2024-01-16T09:56:53;20.40;;;6.00;;
76136;SDS011;68622;53.128;17.966;2024-01-16T09:59:23;20.90;;;7.40;;
76136;SDS011;68622;53.128;17.966;2024-01-16T10:01:51;19.80;;;6.50;;
76136;SDS011;68622;53.128;17.966;2024-01-16T10:04:17;23.70;;;10.90;;
76136;SDS011;68622;53.128;17.966;2024-01-16T10:06:45;20.70;;;5.70;;
76136;SDS011;68622;53.128;17.966;2024-01-16T10:09:14;17.80;;;4.60;;
76136;SDS011;68622;53.128;17.966;2024-01-16T10:11:41;13.40;;;4.90;;
76136;SDS011;68622;53.128;17.966;2024-01-16T10:14:07;14.20;;;4.40;;
76136;SDS011;68622;53.128;17.966;2024-01-16T10:19:31;11.30;;;3.90;;
76136;SDS011;68622;53.128;17.966;2024-01-16T10:22:01;12.80;;;5.10;;
76136;SDS011;68622;53.128;17.966;2024-01-16T10:24:29;13.90;;;4.60;;
76136;SDS011;68622;53.128;17.966;2024-01-16T10:27:02;14.30;;;5.50;;
76136;SDS011;68622;53.128;17.966;2024-01-16T10:29:29;13.10;;;3.00;;
76136;SDS011;68622;53.128;17.966;2024-01-16T10:31:57;8.00;;;2.50;;
76136;SDS011;68622;53.128;17.966;2024-01-16T10:34:24;12.80;;;3.50;;
76136;SDS011;68622;53.128;17.966;2024-01-16T10:36:50;13.60;;;3.30;;
76136;SDS011;68622;53.128;17.966;2024-01-16T10:39:18;15.80;;;3.10;;
76136;SDS011;68622;53.128;17.966;2024-01-16T10:41:54;12.40;;;4.30;;
76136;SDS011;68622;53.128;17.966;2024-01-16T10:44:23;10.60;;;3.30;;
76136;SDS011;68622;53.128;17.966;2024-01-16T10:46:49;13.20;;;3.70;;
76136;SDS011;68622;53.128;17.966;2024-01-16T10:49:15;9.80;;;2.90;;
76136;SDS011;68622;53.128;17.966;2024-01-16T10:51:46;12.70;;;3.40;;
76136;SDS011;68622;53.128;17.966;2024-01-16T10:54:14;12.70;;;3.40;;
76136;SDS011;68622;53.128;17.966;2024-01-16T10:56:46;11.70;;;2.70;;
76136;SDS011;68622;53.128;17.966;2024-01-16T10:59:18;10.30;;;2.90;;
76136;SDS011;68622;53.128;17.966;2024-01-16T11:01:48;15.80;;;4.40;;
76136;SDS011;68622;53.128;17.966;2024-01-16T11:04:17;15.30;;;4.70;;
76136;SDS011;68622;53.128;17.966;2024-01-16T11:06:46;14.20;;;3.30;;
76136;SDS011;68622;53.128;17.966;2024-01-16T11:09:13;18.00;;;4.60;;
76136;SDS011;68622;53.128;17.966;2024-01-16T11:11:43;15.30;;;4.70;;
76136;SDS011;68622;53.128;17.966;2024-01-16T11:14:14;16.20;;;3.80;;
76136;SDS011;68622;53.128;17.966;2024-01-16T11:16:41;12.90;;;3.80;;
76136;SDS011;68622;53.128;17.966;2024-01-16T11:19:08;14.20;;;3.90;;
76136;SDS011;68622;53.128;17.966;2024-01-16T11:21:35;11.80;;;3.40;;
76136;SDS011;68622;53.128;17.966;2024-01-16T11:24:03;14.30;;;3.90;;
76136;SDS011;68622;53.128;17.966;2024-01-16T11:26:30;14.00;;;3.60;;
76136;SDS011;68622;53.128;17.966;2024-01-16T11:28:58;10.40;;;3.00;;
76136;SDS011;68622;53.128;17.966;2024-01-16T11:31:29;10.30;;;2.50;;
76136;SDS011;68622;53.128;17.966;2024-01-16T11:34:00;11.30;;;2.70;;
76136;SDS011;68622;53.128;17.966;2024-01-16T11:39:16;7.00;;;1.50;;
76136;SDS011;68622;53.128;17.966;2024-01-16T11:42:06;9.00;;;2.20;;
76136;SDS011;68622;53.128;17.966;2024-01-16T11:47:19;6.90;;;1.50;;
76136;SDS011;68622;53.128;17.966;2024-01-16T11:50:07;7.60;;;1.50;;
76136;SDS011;68622;53.128;17.966;2024-01-16T11:52:43;6.40;;;1.40;;
76136;SDS011;68622;53.128;17.966;2024-01-16T11:55:28;10.90;;;1.90;;
76136;SDS011;68622;53.128;17.966;2024-01-16T11:58:01;8.60;;;2.00;;
76136;SDS011;68622;53.128;17.966;2024-01-16T12:00:52;6.90;;;1.60;;
76136;SDS011;68622;53.128;17.966;2024-01-16T12:03:20;11.20;;;2.20;;
76136;SDS011;68622;53.128;17.966;2024-01-16T12:05:57;11.40;;;2.40;;
76136;SDS011;68622;53.128;17.966;2024-01-16T12:08:24;12.10;;;2.30;;
76136;SDS011;68622;53.128;17.966;2024-01-16T12:10:50;8.90;;;1.90;;
76136;SDS011;68622;53.128;17.966;2024-01-16T12:13:16;9.50;;;1.80;;
76136;SDS011;68622;53.128;17.966;2024-01-16T12:15:43;15.50;;;2.10;;
76136;SDS011;68622;53.128;17.966;2024-01-16T12:18:09;9.00;;;1.90;;
76136;SDS011;68622;53.128;17.966;2024-01-16T12:20:36;18.10;;;3.40;;
76136;SDS011;68622;53.128;17.966;2024-01-16T12:23:06;11.40;;;3.00;;
76136;SDS011;68622;53.128;17.966;2024-01-16T12:25:34;10.60;;;2.50;;
76136;SDS011;68622;53.128;17.966;2024-01-16T12:28:01;18.80;;;5.20;;
76136;SDS011;68622;53.128;17.966;2024-01-16T12:33:05;11.10;;;2.20;;
76136;SDS011;68622;53.128;17.966;2024-01-16T12:35:35;10.50;;;2.30;;
76136;SDS011;68622;53.128;17.966;2024-01-16T12:38:05;9.70;;;2.50;;
76136;SDS011;68622;53.128;17.966;2024-01-16T12:40:35;6.00;;;1.50;;
76136;SDS011;68622;53.128;17.966;2024-01-16T12:43:02;9.80;;;2.40;;
76136;SDS011;68622;53.128;17.966;2024-01-16T12:45:30;13.40;;;2.70;;
76136;SDS011;68622;53.128;17.966;2024-01-16T12:47:57;14.50;;;3.40;;
76136;SDS011;68622;53.128;17.966;2024-01-16T12:50:24;16.30;;;3.60;;
76136;SDS011;68622;53.128;17.966;2024-01-16T12:55:32;18.50;;;5.10;;
76136;SDS011;68622;53.128;17.966;2024-01-16T12:58:12;14.40;;;3.60;;
76136;SDS011;68622;53.128;17.966;2024-01-16T13:00:38;13.70;;;4.00;;
76136;SDS011;68622;53.128;17.966;2024-01-16T13:03:05;20.10;;;6.00;;
76136;SDS011;68622;53.128;17.966;2024-01-16T13:05:31;19.30;;;5.30;;
76136;SDS011;68622;53.128;17.966;2024-01-16T13:08:01;21.30;;;6.20;;
76136;SDS011;68622;53.128;17.966;2024-01-16T13:10:31;17.20;;;4.00;;
76136;SDS011;68622;53.128;17.966;2024-01-16T13:15:43;13.50;;;3.60;;
76136;SDS011;68622;53.128;17.966;2024-01-16T13:18:20;13.50;;;3.30;;
76136;SDS011;68622;53.128;17.966;2024-01-16T13:20:50;11.40;;;2.90;;
76136;SDS011;68622;53.128;17.966;2024-01-16T13:23:18;9.60;;;2.10;;
76136;SDS011;68622;53.128;17.966;2024-01-16T13:25:44;8.60;;;1.70;;
76136;SDS011;68622;53.128;17.966;2024-01-16T13:28:12;8.80;;;2.20;;
76136;SDS011;68622;53.128;17.966;2024-01-16T13:30:40;9.10;;;2.70;;
76136;SDS011;68622;53.128;17.966;2024-01-16T13:33:08;12.30;;;3.00;;
76136;SDS011;68622;53.128;17.966;2024-01-16T13:35:35;16.80;;;3.80;;
76136;SDS011;68622;53.128;17.966;2024-01-16T13:38:05;12.20;;;3.10;;
76136;SDS011;68622;53.128;17.966;2024-01-16T13:40:32;9.20;;;2.60;;
76136;SDS011;68622;53.128;17.966;2024-01-16T13:43:01;24.70;;;3.40;;
76136;SDS011;68622;53.128;17.966;2024-01-16T13:45:27;12.70;;;2.50;;
76136;SDS011;68622;53.128;17.966;2024-01-16T13:47:57;10.80;;;2.50;;
76136;SDS011;68622;53.128;17.966;2024-01-16T13:50:23;17.10;;;3.60;;
76136;SDS011;68622;53.128;17.966;2024-01-16T13:52:49;17.40;;;4.90;;
76136;SDS011;68622;53.128;17.966;2024-01-16T13:55:16;19.70;;;6.00;;
76136;SDS011;68622;53.128;17.966;2024-01-16T13:57:44;20.30;;;6.20;;
76136;SDS011;68622;53.128;17.966;2024-01-16T14:00:13;17.30;;;5.30;;
76136;SDS011;68622;53.128;17.966;2024-01-16T14:02:41;17.40;;;6.10;;
76136;SDS011;68622;53.128;17.966;2024-01-16T14:05:08;19.00;;;6.30;;
76136;SDS011;68622;53.128;17.966;2024-01-16T14:07:44;26.10;;;8.90;;
76136;SDS011;68622;53.128;17.966;2024-01-16T14:10:16;24.80;;;9.10;;
76136;SDS011;68622;53.128;17.966;2024-01-16T14:12:43;28.60;;;9.50;;
76136;SDS011;68622;53.128;17.966;2024-01-16T14:15:11;30.20;;;10.80;;
76136;SDS011;68622;53.128;17.966;2024-01-16T14:18:04;31.30;;;10.60;;
76136;SDS011;68622;53.128;17.966;2024-01-16T14:20:30;28.20;;;10.20;;
76136;SDS011;68622;53.128;17.966;2024-01-16T14:22:56;24.30;;;7.40;;
76136;SDS011;68622;53.128;17.966;2024-01-16T14:25:23;24.80;;;8.90;;
76136;SDS011;68622;53.128;17.966;2024-01-16T14:30:28;27.10;;;9.30;;
76136;SDS011;68622;53.128;17.966;2024-01-16T14:32:55;33.70;;;10.20;;
76136;SDS011;68622;53.128;17.966;2024-01-16T14:35:22;30.30;;;10.70;;
76136;SDS011;68622;53.128;17.966;2024-01-16T14:37:49;34.10;;;9.90;;
76136;SDS011;68622;53.128;17.966;2024-01-16T14:40:19;31.60;;;10.00;;
76136;SDS011;68622;53.128;17.966;2024-01-16T14:42:54;34.00;;;10.70;;
76136;SDS011;68622;53.128;17.966;2024-01-16T14:45:25;25.40;;;9.70;;